sensor_id;sensor_type;location;lat;lon;timestamp;temperature;humidity
56428;DHT22;42331;53.578;9.760;2023-02-18T00:02:27;6.60;99.90
56428;DHT22;42331;53.578;9.760;2023-02-18T00:04:58;6.60;99.90
56428;DHT22;42331;53.578;9.760;2023-02-18T00:07:36;6.70;99.90
56428;DHT22;42331;53.578;9.760;2023-02-18T00:10:11;6.70;99.90
56428;DHT22;42331;53.578;9.760;2023-02-18T00:12:42;6.70;99.90
56428;DHT22;42331;53.578;9.760;2023-02-18T00:15:13;6.70;99.90
56428;DHT22;42331;53.578;9.760;2023-02-18T00:17:44;6.70;99.90
56428;DHT22;42331;53.578;9.760;2023-02-18T00:20:15;6.70;99.90
56428;DHT22;42331;53.578;9.760;2023-02-18T00:22:45;6.60;99.90
56428;DHT22;42331;53.578;9.760;2023-02-18T00:25:16;6.60;99.90
56428;DHT22;42331;53.578;9.760;2023-02-18T00:27:47;6.60;99.90
56428;DHT22;42331;53.578;9.760;2023-02-18T00:30:18;6.60;99.90
56428;DHT22;42331;53.578;9.760;2023-02-18T00:32:48;6.60;99.90
56428;DHT22;42331;53.578;9.760;2023-02-18T00:35:19;6.60;99.90
56428;DHT22;42331;53.578;9.760;2023-02-18T00:37:51;6.60;99.90
56428;DHT22;42331;53.578;9.760;2023-02-18T00:40:22;6.50;99.90
56428;DHT22;42331;53.578;9.760;2023-02-18T00:42:53;6.50;99.90
56428;DHT22;42331;53.578;9.760;2023-02-18T00:45:23;6.50;99.90
56428;DHT22;42331;53.578;9.760;2023-02-18T00:47:54;6.40;99.90
56428;DHT22;42331;53.578;9.760;2023-02-18T00:50:25;6.50;99.90
56428;DHT22;42331;53.578;9.760;2023-02-18T00:52:55;6.40;99.90
56428;DHT22;42331;53.578;9.760;2023-02-18T00:55:26;6.40;99.90
56428;DHT22;42331;53.578;9.760;2023-02-18T00:57:57;6.50;99.90
56428;DHT22;42331;53.578;9.760;2023-02-18T01:00:40;6.50;99.90
56428;DHT22;42331;53.578;9.760;2023-02-18T01:03:11;6.50;99.90
56428;DHT22;42331;53.578;9.760;2023-02-18T01:05:42;6.50;99.90
56428;DHT22;42331;53.578;9.760;2023-02-18T01:08:12;6.50;99.90
56428;DHT22;42331;53.578;9.760;2023-02-18T01:10:45;6.50;99.90
56428;DHT22;42331;53.578;9.760;2023-02-18T01:13:16;6.50;99.90
56428;DHT22;42331;53.578;9.760;2023-02-18T01:15:47;6.50;99.90
56428;DHT22;42331;53.578;9.760;2023-02-18T01:18:18;6.50;99.90
56428;DHT22;42331;53.578;9.760;2023-02-18T01:20:49;6.50;99.90
56428;DHT22;42331;53.578;9.760;2023-02-18T01:23:19;6.50;99.90
56428;DHT22;42331;53.578;9.760;2023-02-18T01:25:50;6.50;99.90
56428;DHT22;42331;53.578;9.760;2023-02-18T01:28:21;6.40;99.90
56428;DHT22;42331;53.578;9.760;2023-02-18T01:30:54;6.50;99.90
56428;DHT22;42331;53.578;9.760;2023-02-18T01:33:25;6.50;99.90
56428;DHT22;42331;53.578;9.760;2023-02-18T01:35:55;6.40;99.90
56428;DHT22;42331;53.578;9.760;2023-02-18T01:38:26;6.50;99.90
56428;DHT22;42331;53.578;9.760;2023-02-18T01:40:58;6.50;99.90
56428;DHT22;42331;53.578;9.760;2023-02-18T01:43:29;6.50;99.90
56428;DHT22;42331;53.578;9.760;2023-02-18T01:48:38;6.40;99.90
56428;DHT22;42331;53.578;9.760;2023-02-18T01:51:28;6.30;99.90
56428;DHT22;42331;53.578;9.760;2023-02-18T01:54:08;6.30;99.90
56428;DHT22;42331;53.578;9.760;2023-02-18T01:59:37;6.30;99.90
56428;DHT22;42331;53.578;9.760;2023-02-18T02:02:12;6.30;99.90
56428;DHT22;42331;53.578;9.760;2023-02-18T02:04:43;6.30;99.90
56428;DHT22;42331;53.578;9.760;2023-02-18T02:07:15;6.30;99.90
56428;DHT22;42331;53.578;9.760;2023-02-18T02:09:48;6.30;99.90
56428;DHT22;42331;53.578;9.760;2023-02-18T02:37:22;6.30;99.90
56428;DHT22;42331;53.578;9.760;2023-02-18T02:40:22;6.30;99.90
56428;DHT22;42331;53.578;9.760;2023-02-18T02:43:01;6.40;99.90
56428;DHT22;42331;53.578;9.760;2023-02-18T02:45:56;6.40;99.90
56428;DHT22;42331;53.578;9.760;2023-02-18T02:48:31;6.30;99.90
56428;DHT22;42331;53.578;9.760;2023-02-18T02:53:53;6.40;99.90
56428;DHT22;42331;53.578;9.760;2023-02-18T02:56:24;6.40;99.90
56428;DHT22;42331;53.578;9.760;2023-02-18T02:59:01;6.50;99.90
56428;DHT22;42331;53.578;9.760;2023-02-18T03:15:55;6.60;99.90
56428;DHT22;42331;53.578;9.760;2023-02-18T03:18:42;6.60;99.90
56428;DHT22;42331;53.578;9.760;2023-02-18T03:21:36;6.60;99.90
56428;DHT22;42331;53.578;9.760;2023-02-18T03:24:49;6.60;99.90
56428;DHT22;42331;53.578;9.760;2023-02-18T03:27:33;6.50;99.90
56428;DHT22;42331;53.578;9.760;2023-02-18T03:30:30;6.50;99.90
56428;DHT22;42331;53.578;9.760;2023-02-18T03:33:04;6.60;99.90
56428;DHT22;42331;53.578;9.760;2023-02-18T03:35:37;6.60;99.90
56428;DHT22;42331;53.578;9.760;2023-02-18T03:38:17;6.70;99.90
56428;DHT22;42331;53.578;9.760;2023-02-18T03:40:50;6.70;99.90
56428;DHT22;42331;53.578;9.760;2023-02-18T03:43:21;6.70;99.90
56428;DHT22;42331;53.578;9.760;2023-02-18T03:45:52;6.70;99.90
56428;DHT22;42331;53.578;9.760;2023-02-18T03:48:24;6.70;99.90
56428;DHT22;42331;53.578;9.760;2023-02-18T03:50:55;6.70;99.90
56428;DHT22;42331;53.578;9.760;2023-02-18T03:53:26;6.70;99.90
56428;DHT22;42331;53.578;9.760;2023-02-18T03:55:56;6.60;99.90
56428;DHT22;42331;53.578;9.760;2023-02-18T03:58:27;6.60;99.90
56428;DHT22;42331;53.578;9.760;2023-02-18T04:00:58;6.60;99.90
56428;DHT22;42331;53.578;9.760;2023-02-18T04:03:28;6.60;99.90
56428;DHT22;42331;53.578;9.760;2023-02-18T04:05:59;6.50;99.90
56428;DHT22;42331;53.578;9.760;2023-02-18T04:08:30;6.50;99.90
56428;DHT22;42331;53.578;9.760;2023-02-18T04:11:01;6.40;99.90
56428;DHT22;42331;53.578;9.760;2023-02-18T04:13:31;6.40;99.90
56428;DHT22;42331;53.578;9.760;2023-02-18T04:16:02;6.40;99.90
56428;DHT22;42331;53.578;9.760;2023-02-18T04:18:33;6.30;99.90
56428;DHT22;42331;53.578;9.760;2023-02-18T04:21:04;6.30;99.90
56428;DHT22;42331;53.578;9.760;2023-02-18T04:23:35;6.30;99.90
56428;DHT22;42331;53.578;9.760;2023-02-18T04:26:06;6.20;99.90
56428;DHT22;42331;53.578;9.760;2023-02-18T04:28:36;6.20;99.90
56428;DHT22;42331;53.578;9.760;2023-02-18T04:31:07;6.20;99.90
56428;DHT22;42331;53.578;9.760;2023-02-18T04:33:38;6.20;99.90
56428;DHT22;42331;53.578;9.760;2023-02-18T04:36:09;6.10;99.90
56428;DHT22;42331;53.578;9.760;2023-02-18T04:38:39;6.10;99.90
56428;DHT22;42331;53.578;9.760;2023-02-18T04:41:12;6.00;99.90
56428;DHT22;42331;53.578;9.760;2023-02-18T04:43:43;6.00;99.90
56428;DHT22;42331;53.578;9.760;2023-02-18T04:46:13;6.10;99.90
56428;DHT22;42331;53.578;9.760;2023-02-18T04:48:44;6.00;99.90
56428;DHT22;42331;53.578;9.760;2023-02-18T04:51:15;6.00;99.90
56428;DHT22;42331;53.578;9.760;2023-02-18T04:53:46;6.00;99.90
56428;DHT22;42331;53.578;9.760;2023-02-18T04:56:17;6.10;99.90
56428;DHT22;42331;53.578;9.760;2023-02-18T04:58:47;6.00;99.90
56428;DHT22;42331;53.578;9.760;2023-02-18T05:01:18;6.00;99.90
56428;DHT22;42331;53.578;9.760;2023-02-18T05:03:49;6.00;99.90
56428;DHT22;42331;53.578;9.760;2023-02-18T05:06:19;6.10;99.90
56428;DHT22;42331;53.578;9.760;2023-02-18T05:08:50;6.10;99.90
56428;DHT22;42331;53.578;9.760;2023-02-18T05:11:21;6.10;99.90
56428;DHT22;42331;53.578;9.760;2023-02-18T05:13:51;6.10;99.90
56428;DHT22;42331;53.578;9.760;2023-02-18T05:16:22;6.10;99.90
56428;DHT22;42331;53.578;9.760;2023-02-18T05:18:52;6.10;99.90
56428;DHT22;42331;53.578;9.760;2023-02-18T05:21:23;6.10;99.90
56428;DHT22;42331;53.578;9.760;2023-02-18T05:23:54;6.00;99.90
56428;DHT22;42331;53.578;9.760;2023-02-18T05:26:25;6.10;99.90
56428;DHT22;42331;53.578;9.760;2023-02-18T05:28:55;6.00;99.90
56428;DHT22;42331;53.578;9.760;2023-02-18T05:31:26;6.00;99.90
56428;DHT22;42331;53.578;9.760;2023-02-18T05:33:57;6.00;99.90
56428;DHT22;42331;53.578;9.760;2023-02-18T05:36:28;5.90;99.90
56428;DHT22;42331;53.578;9.760;2023-02-18T05:38:58;6.00;99.90
56428;DHT22;42331;53.578;9.760;2023-02-18T05:41:29;5.90;99.90
56428;DHT22;42331;53.578;9.760;2023-02-18T05:44:00;5.80;99.90
56428;DHT22;42331;53.578;9.760;2023-02-18T05:46:49;5.90;99.90
56428;DHT22;42331;53.578;9.760;2023-02-18T05:49:20;5.80;99.90
56428;DHT22;42331;53.578;9.760;2023-02-18T05:51:51;5.80;99.90
56428;DHT22;42331;53.578;9.760;2023-02-18T05:54:22;5.80;99.90
56428;DHT22;42331;53.578;9.760;2023-02-18T05:56:53;5.80;99.90
56428;DHT22;42331;53.578;9.760;2023-02-18T05:59:24;5.80;99.90
56428;DHT22;42331;53.578;9.760;2023-02-18T06:01:55;5.80;99.90
56428;DHT22;42331;53.578;9.760;2023-02-18T06:04:25;5.80;99.90
56428;DHT22;42331;53.578;9.760;2023-02-18T06:06:56;5.80;99.90
56428;DHT22;42331;53.578;9.760;2023-02-18T06:09:27;5.80;99.90
56428;DHT22;42331;53.578;9.760;2023-02-18T06:11:58;5.70;99.90
56428;DHT22;42331;53.578;9.760;2023-02-18T06:14:28;5.70;99.90
56428;DHT22;42331;53.578;9.760;2023-02-18T06:16:59;5.70;99.90
56428;DHT22;42331;53.578;9.760;2023-02-18T06:19:30;5.70;99.90
56428;DHT22;42331;53.578;9.760;2023-02-18T06:22:00;5.70;99.90
56428;DHT22;42331;53.578;9.760;2023-02-18T06:24:31;5.70;99.90
56428;DHT22;42331;53.578;9.760;2023-02-18T06:27:03;5.60;99.90
56428;DHT22;42331;53.578;9.760;2023-02-18T06:29:34;5.60;99.90
56428;DHT22;42331;53.578;9.760;2023-02-18T06:32:06;5.70;99.90
56428;DHT22;42331;53.578;9.760;2023-02-18T06:34:36;5.70;99.90
56428;DHT22;42331;53.578;9.760;2023-02-18T06:37:07;5.70;99.90
56428;DHT22;42331;53.578;9.760;2023-02-18T06:39:38;5.70;99.90
56428;DHT22;42331;53.578;9.760;2023-02-18T06:42:09;5.60;99.90
56428;DHT22;42331;53.578;9.760;2023-02-18T06:44:40;5.70;99.90
56428;DHT22;42331;53.578;9.760;2023-02-18T06:47:10;5.70;99.90
56428;DHT22;42331;53.578;9.760;2023-02-18T06:49:41;5.70;99.90
56428;DHT22;42331;53.578;9.760;2023-02-18T06:52:13;5.70;99.90
56428;DHT22;42331;53.578;9.760;2023-02-18T06:54:44;5.70;99.90
56428;DHT22;42331;53.578;9.760;2023-02-18T06:57:14;5.70;99.90
56428;DHT22;42331;53.578;9.760;2023-02-18T06:59:45;5.70;99.90
56428;DHT22;42331;53.578;9.760;2023-02-18T07:02:16;5.70;99.90
56428;DHT22;42331;53.578;9.760;2023-02-18T07:04:46;5.70;99.90
56428;DHT22;42331;53.578;9.760;2023-02-18T07:07:17;5.70;99.90
56428;DHT22;42331;53.578;9.760;2023-02-18T07:09:48;5.70;99.90
56428;DHT22;42331;53.578;9.760;2023-02-18T07:12:19;5.70;99.90
56428;DHT22;42331;53.578;9.760;2023-02-18T07:14:49;5.80;99.90
56428;DHT22;42331;53.578;9.760;2023-02-18T07:17:20;5.70;99.90
56428;DHT22;42331;53.578;9.760;2023-02-18T07:19:51;5.80;99.90
56428;DHT22;42331;53.578;9.760;2023-02-18T07:22:21;5.80;99.90
56428;DHT22;42331;53.578;9.760;2023-02-18T07:24:53;5.80;99.90
56428;DHT22;42331;53.578;9.760;2023-02-18T07:27:24;5.80;99.90
56428;DHT22;42331;53.578;9.760;2023-02-18T07:29:54;5.70;99.90
56428;DHT22;42331;53.578;9.760;2023-02-18T07:32:25;5.70;99.90
56428;DHT22;42331;53.578;9.760;2023-02-18T07:34:56;5.70;99.90
56428;DHT22;42331;53.578;9.760;2023-02-18T07:37:27;5.80;99.90
56428;DHT22;42331;53.578;9.760;2023-02-18T07:39:57;5.80;99.90
56428;DHT22;42331;53.578;9.760;2023-02-18T07:42:28;5.80;99.90
56428;DHT22;42331;53.578;9.760;2023-02-18T07:44:59;5.80;99.90
56428;DHT22;42331;53.578;9.760;2023-02-18T07:47:29;5.80;99.90
56428;DHT22;42331;53.578;9.760;2023-02-18T07:50:00;5.80;99.90
56428;DHT22;42331;53.578;9.760;2023-02-18T07:52:31;5.80;99.90
56428;DHT22;42331;53.578;9.760;2023-02-18T07:55:01;5.80;99.90
56428;DHT22;42331;53.578;9.760;2023-02-18T07:57:32;5.80;99.90
56428;DHT22;42331;53.578;9.760;2023-02-18T08:00:23;5.80;99.90
56428;DHT22;42331;53.578;9.760;2023-02-18T08:02:54;5.80;99.90
56428;DHT22;42331;53.578;9.760;2023-02-18T08:05:24;5.90;99.90
56428;DHT22;42331;53.578;9.760;2023-02-18T08:07:55;5.90;99.90
56428;DHT22;42331;53.578;9.760;2023-02-18T08:10:26;5.90;99.90
56428;DHT22;42331;53.578;9.760;2023-02-18T08:12:56;5.90;99.90
56428;DHT22;42331;53.578;9.760;2023-02-18T08:15:27;5.90;99.90
56428;DHT22;42331;53.578;9.760;2023-02-18T08:17:58;5.90;99.90
56428;DHT22;42331;53.578;9.760;2023-02-18T08:20:29;5.90;99.90
56428;DHT22;42331;53.578;9.760;2023-02-18T08:22:59;5.90;99.90
56428;DHT22;42331;53.578;9.760;2023-02-18T08:25:30;5.90;99.90
56428;DHT22;42331;53.578;9.760;2023-02-18T08:28:01;5.90;99.90
56428;DHT22;42331;53.578;9.760;2023-02-18T08:30:32;6.00;99.90
56428;DHT22;42331;53.578;9.760;2023-02-18T08:33:03;6.00;99.90
56428;DHT22;42331;53.578;9.760;2023-02-18T08:35:34;5.90;99.90
56428;DHT22;42331;53.578;9.760;2023-02-18T08:38:04;5.90;99.90
56428;DHT22;42331;53.578;9.760;2023-02-18T08:40:35;5.90;99.90
56428;DHT22;42331;53.578;9.760;2023-02-18T08:43:06;5.90;99.90
56428;DHT22;42331;53.578;9.760;2023-02-18T08:45:38;5.90;99.90
56428;DHT22;42331;53.578;9.760;2023-02-18T08:48:09;5.90;99.90
56428;DHT22;42331;53.578;9.760;2023-02-18T08:50:40;6.00;99.90
56428;DHT22;42331;53.578;9.760;2023-02-18T08:53:11;6.00;99.90
56428;DHT22;42331;53.578;9.760;2023-02-18T08:55:42;6.00;99.90
56428;DHT22;42331;53.578;9.760;2023-02-18T08:58:13;6.00;99.90
56428;DHT22;42331;53.578;9.760;2023-02-18T09:00:44;6.00;99.90
56428;DHT22;42331;53.578;9.760;2023-02-18T09:03:15;6.00;99.90
56428;DHT22;42331;53.578;9.760;2023-02-18T09:05:46;6.00;99.90
56428;DHT22;42331;53.578;9.760;2023-02-18T09:08:17;6.00;99.90
56428;DHT22;42331;53.578;9.760;2023-02-18T09:10:48;6.00;99.90
56428;DHT22;42331;53.578;9.760;2023-02-18T09:13:19;6.00;99.90
56428;DHT22;42331;53.578;9.760;2023-02-18T09:15:59;6.00;99.90
56428;DHT22;42331;53.578;9.760;2023-02-18T09:18:30;6.00;99.90
56428;DHT22;42331;53.578;9.760;2023-02-18T09:21:04;6.10;99.90
56428;DHT22;42331;53.578;9.760;2023-02-18T09:23:35;6.10;99.90
56428;DHT22;42331;53.578;9.760;2023-02-18T09:26:08;6.10;99.90
56428;DHT22;42331;53.578;9.760;2023-02-18T09:28:40;6.10;99.90
56428;DHT22;42331;53.578;9.760;2023-02-18T09:31:16;6.10;99.90
56428;DHT22;42331;53.578;9.760;2023-02-18T09:33:51;6.10;99.90
56428;DHT22;42331;53.578;9.760;2023-02-18T09:36:22;6.10;99.90
56428;DHT22;42331;53.578;9.760;2023-02-18T09:38:53;6.10;99.90
56428;DHT22;42331;53.578;9.760;2023-02-18T09:41:43;6.10;99.90
56428;DHT22;42331;53.578;9.760;2023-02-18T09:46:58;6.10;99.90
56428;DHT22;42331;53.578;9.760;2023-02-18T09:49:42;6.20;99.90
56428;DHT22;42331;53.578;9.760;2023-02-18T09:52:20;6.20;99.90
56428;DHT22;42331;53.578;9.760;2023-02-18T09:55:05;6.20;99.90
56428;DHT22;42331;53.578;9.760;2023-02-18T09:57:49;6.20;99.90
56428;DHT22;42331;53.578;9.760;2023-02-18T10:00:29;6.30;99.90
56428;DHT22;42331;53.578;9.760;2023-02-18T10:03:07;6.30;99.90
56428;DHT22;42331;53.578;9.760;2023-02-18T10:08:37;6.50;99.90
56428;DHT22;42331;53.578;9.760;2023-02-18T10:11:16;6.50;99.90
56428;DHT22;42331;53.578;9.760;2023-02-18T10:13:52;6.40;99.90
56428;DHT22;42331;53.578;9.760;2023-02-18T10:16:24;6.40;99.90
56428;DHT22;42331;53.578;9.760;2023-02-18T10:21:42;6.50;99.90
56428;DHT22;42331;53.578;9.760;2023-02-18T10:26:57;6.60;99.90
56428;DHT22;42331;53.578;9.760;2023-02-18T10:29:28;6.70;99.90
56428;DHT22;42331;53.578;9.760;2023-02-18T10:32:21;6.70;99.90
56428;DHT22;42331;53.578;9.760;2023-02-18T10:35:00;6.80;99.90
56428;DHT22;42331;53.578;9.760;2023-02-18T10:45:58;6.90;99.90
56428;DHT22;42331;53.578;9.760;2023-02-18T10:48:54;7.00;99.90
56428;DHT22;42331;53.578;9.760;2023-02-18T10:51:32;7.10;99.90
56428;DHT22;42331;53.578;9.760;2023-02-18T10:54:03;7.30;99.90
56428;DHT22;42331;53.578;9.760;2023-02-18T10:56:50;7.30;99.90
56428;DHT22;42331;53.578;9.760;2023-02-18T11:02:09;7.60;99.90
56428;DHT22;42331;53.578;9.760;2023-02-18T11:04:44;7.70;99.90
56428;DHT22;42331;53.578;9.760;2023-02-18T11:07:18;7.80;99.90
56428;DHT22;42331;53.578;9.760;2023-02-18T11:10:17;7.90;99.90
56428;DHT22;42331;53.578;9.760;2023-02-18T11:12:50;7.90;99.90
56428;DHT22;42331;53.578;9.760;2023-02-18T11:15:26;8.00;99.90
56428;DHT22;42331;53.578;9.760;2023-02-18T11:18:19;8.20;99.90
56428;DHT22;42331;53.578;9.760;2023-02-18T11:21:02;8.50;99.90
56428;DHT22;42331;53.578;9.760;2023-02-18T11:23:45;8.80;99.90
56428;DHT22;42331;53.578;9.760;2023-02-18T11:26:31;9.00;99.90
56428;DHT22;42331;53.578;9.760;2023-02-18T11:29:19;9.20;99.90
56428;DHT22;42331;53.578;9.760;2023-02-18T11:31:54;9.30;99.90
56428;DHT22;42331;53.578;9.760;2023-02-18T11:34:29;9.40;99.90
56428;DHT22;42331;53.578;9.760;2023-02-18T11:37:20;9.40;99.90
56428;DHT22;42331;53.578;9.760;2023-02-18T11:39:54;9.40;99.90
56428;DHT22;42331;53.578;9.760;2023-02-18T11:42:26;9.50;99.90
56428;DHT22;42331;53.578;9.760;2023-02-18T11:44:58;9.60;99.90
56428;DHT22;42331;53.578;9.760;2023-02-18T11:47:36;9.50;99.90
56428;DHT22;42331;53.578;9.760;2023-02-18T11:52:44;9.60;99.90
56428;DHT22;42331;53.578;9.760;2023-02-18T11:55:21;9.60;99.90
56428;DHT22;42331;53.578;9.760;2023-02-18T11:58:03;9.50;99.90
56428;DHT22;42331;53.578;9.760;2023-02-18T12:00:41;9.50;99.90
56428;DHT22;42331;53.578;9.760;2023-02-18T12:03:37;9.50;99.90
56428;DHT22;42331;53.578;9.760;2023-02-18T12:06:32;9.50;99.90
56428;DHT22;42331;53.578;9.760;2023-02-18T12:11:42;9.50;99.90
56428;DHT22;42331;53.578;9.760;2023-02-18T12:14:22;9.40;99.90
56428;DHT22;42331;53.578;9.760;2023-02-18T12:25:46;9.30;99.90
56428;DHT22;42331;53.578;9.760;2023-02-18T12:31:39;9.20;99.90
56428;DHT22;42331;53.578;9.760;2023-02-18T12:34:28;9.30;99.90
56428;DHT22;42331;53.578;9.760;2023-02-18T12:43:43;9.20;99.90
56428;DHT22;42331;53.578;9.760;2023-02-18T13:02:48;9.10;99.90
56428;DHT22;42331;53.578;9.760;2023-02-18T13:17:10;9.10;99.90
56428;DHT22;42331;53.578;9.760;2023-02-18T13:19:54;9.10;99.90
56428;DHT22;42331;53.578;9.760;2023-02-18T13:22:28;9.10;99.90
56428;DHT22;42331;53.578;9.760;2023-02-18T13:24:59;9.10;99.90
56428;DHT22;42331;53.578;9.760;2023-02-18T13:30:33;9.00;99.90
56428;DHT22;42331;53.578;9.760;2023-02-18T13:36:25;9.00;99.90
56428;DHT22;42331;53.578;9.760;2023-02-18T13:39:05;8.90;99.90
56428;DHT22;42331;53.578;9.760;2023-02-18T13:41:39;8.90;99.90
56428;DHT22;42331;53.578;9.760;2023-02-18T13:46:56;8.90;99.90
56428;DHT22;42331;53.578;9.760;2023-02-18T13:49:34;8.90;99.90
56428;DHT22;42331;53.578;9.760;2023-02-18T13:52:17;8.80;99.90
56428;DHT22;42331;53.578;9.760;2023-02-18T13:54:49;8.70;99.90
56428;DHT22;42331;53.578;9.760;2023-02-18T13:57:25;8.70;99.90
56428;DHT22;42331;53.578;9.760;2023-02-18T13:59:58;8.70;99.90
56428;DHT22;42331;53.578;9.760;2023-02-18T14:02:35;8.70;99.90
56428;DHT22;42331;53.578;9.760;2023-02-18T14:07:44;8.60;99.90
56428;DHT22;42331;53.578;9.760;2023-02-18T14:20:46;8.20;99.90
56428;DHT22;42331;53.578;9.760;2023-02-18T14:25:52;7.90;99.90
56428;DHT22;42331;53.578;9.760;2023-02-18T14:31:20;7.90;99.90
56428;DHT22;42331;53.578;9.760;2023-02-18T14:36:38;7.70;99.90
56428;DHT22;42331;53.578;9.760;2023-02-18T14:48:24;7.30;99.90
56428;DHT22;42331;53.578;9.760;2023-02-18T14:50:58;7.20;99.90
56428;DHT22;42331;53.578;9.760;2023-02-18T14:53:31;7.10;99.90
56428;DHT22;42331;53.578;9.760;2023-02-18T14:56:05;7.10;99.90
56428;DHT22;42331;53.578;9.760;2023-02-18T14:58:51;6.90;99.90
56428;DHT22;42331;53.578;9.760;2023-02-18T15:01:30;6.90;99.90
56428;DHT22;42331;53.578;9.760;2023-02-18T15:04:01;6.90;99.90
56428;DHT22;42331;53.578;9.760;2023-02-18T15:06:34;6.80;99.90
56428;DHT22;42331;53.578;9.760;2023-02-18T15:09:18;6.90;99.90
56428;DHT22;42331;53.578;9.760;2023-02-18T15:12:04;6.90;99.90
56428;DHT22;42331;53.578;9.760;2023-02-18T15:14:39;6.80;99.90
56428;DHT22;42331;53.578;9.760;2023-02-18T15:17:29;6.80;99.90
56428;DHT22;42331;53.578;9.760;2023-02-18T15:20:04;6.70;99.90
56428;DHT22;42331;53.578;9.760;2023-02-18T15:22:35;6.80;99.90
56428;DHT22;42331;53.578;9.760;2023-02-18T15:25:08;6.60;99.90
56428;DHT22;42331;53.578;9.760;2023-02-18T15:27:43;6.50;99.90
56428;DHT22;42331;53.578;9.760;2023-02-18T15:30:26;6.50;99.90
56428;DHT22;42331;53.578;9.760;2023-02-18T15:33:00;6.50;99.90
56428;DHT22;42331;53.578;9.760;2023-02-18T15:35:31;6.50;99.90
56428;DHT22;42331;53.578;9.760;2023-02-18T15:38:02;6.40;99.90
56428;DHT22;42331;53.578;9.760;2023-02-18T15:40:36;6.40;99.90
56428;DHT22;42331;53.578;9.760;2023-02-18T15:43:07;6.30;99.90
56428;DHT22;42331;53.578;9.760;2023-02-18T15:45:41;6.20;99.90
56428;DHT22;42331;53.578;9.760;2023-02-18T15:48:24;6.30;99.90
56428;DHT22;42331;53.578;9.760;2023-02-18T15:51:02;6.30;99.90
56428;DHT22;42331;53.578;9.760;2023-02-18T15:53:37;6.40;99.90
56428;DHT22;42331;53.578;9.760;2023-02-18T15:56:11;6.40;99.90
56428;DHT22;42331;53.578;9.760;2023-02-18T15:58:45;6.20;99.90
56428;DHT22;42331;53.578;9.760;2023-02-18T16:01:28;6.20;99.90
56428;DHT22;42331;53.578;9.760;2023-02-18T16:03:59;6.20;99.90
56428;DHT22;42331;53.578;9.760;2023-02-18T16:06:36;6.20;99.90
56428;DHT22;42331;53.578;9.760;2023-02-18T16:09:24;6.10;99.90
56428;DHT22;42331;53.578;9.760;2023-02-18T16:11:57;6.10;99.90
56428;DHT22;42331;53.578;9.760;2023-02-18T16:14:47;6.10;99.90
56428;DHT22;42331;53.578;9.760;2023-02-18T16:17:20;6.10;99.90
56428;DHT22;42331;53.578;9.760;2023-02-18T16:25:14;6.10;99.90
56428;DHT22;42331;53.578;9.760;2023-02-18T16:28:02;6.00;99.90
56428;DHT22;42331;53.578;9.760;2023-02-18T16:30:33;5.90;99.90
56428;DHT22;42331;53.578;9.760;2023-02-18T16:33:04;5.90;99.90
56428;DHT22;42331;53.578;9.760;2023-02-18T16:35:35;5.80;99.90
56428;DHT22;42331;53.578;9.760;2023-02-18T16:38:06;5.90;99.90
56428;DHT22;42331;53.578;9.760;2023-02-18T16:40:38;5.80;99.90
56428;DHT22;42331;53.578;9.760;2023-02-18T16:43:15;5.90;99.90
56428;DHT22;42331;53.578;9.760;2023-02-18T16:45:51;5.80;99.90
56428;DHT22;42331;53.578;9.760;2023-02-18T16:51:02;5.90;99.90
56428;DHT22;42331;53.578;9.760;2023-02-18T16:53:34;5.80;99.90
56428;DHT22;42331;53.578;9.760;2023-02-18T16:56:11;5.70;99.90
56428;DHT22;42331;53.578;9.760;2023-02-18T16:58:43;5.70;99.90
56428;DHT22;42331;53.578;9.760;2023-02-18T17:01:40;5.70;99.90
56428;DHT22;42331;53.578;9.760;2023-02-18T17:04:15;5.60;99.90
56428;DHT22;42331;53.578;9.760;2023-02-18T17:06:46;5.60;99.90
56428;DHT22;42331;53.578;9.760;2023-02-18T17:09:20;5.60;99.90
56428;DHT22;42331;53.578;9.760;2023-02-18T17:11:53;5.70;99.90
56428;DHT22;42331;53.578;9.760;2023-02-18T17:14:25;5.60;99.90
56428;DHT22;42331;53.578;9.760;2023-02-18T17:16:56;5.70;99.90
56428;DHT22;42331;53.578;9.760;2023-02-18T17:19:27;5.70;99.90
56428;DHT22;42331;53.578;9.760;2023-02-18T17:21:58;5.70;99.90
56428;DHT22;42331;53.578;9.760;2023-02-18T17:24:28;5.70;99.90
56428;DHT22;42331;53.578;9.760;2023-02-18T17:26:59;5.70;99.90
56428;DHT22;42331;53.578;9.760;2023-02-18T17:29:30;5.70;99.90
56428;DHT22;42331;53.578;9.760;2023-02-18T17:32:02;5.60;99.90
56428;DHT22;42331;53.578;9.760;2023-02-18T17:34:34;5.70;99.90
56428;DHT22;42331;53.578;9.760;2023-02-18T17:37:12;5.70;99.90
56428;DHT22;42331;53.578;9.760;2023-02-18T17:39:43;5.70;99.90
56428;DHT22;42331;53.578;9.760;2023-02-18T17:42:13;5.70;99.90
56428;DHT22;42331;53.578;9.760;2023-02-18T17:44:44;5.70;99.90
56428;DHT22;42331;53.578;9.760;2023-02-18T17:47:15;5.70;99.90
56428;DHT22;42331;53.578;9.760;2023-02-18T17:49:46;5.70;99.90
56428;DHT22;42331;53.578;9.760;2023-02-18T17:52:29;5.70;99.90
56428;DHT22;42331;53.578;9.760;2023-02-18T17:55:00;5.70;99.90
56428;DHT22;42331;53.578;9.760;2023-02-18T17:57:31;5.70;99.90
56428;DHT22;42331;53.578;9.760;2023-02-18T18:00:02;5.70;99.90
56428;DHT22;42331;53.578;9.760;2023-02-18T18:02:33;5.70;99.90
56428;DHT22;42331;53.578;9.760;2023-02-18T18:05:04;5.60;99.90
56428;DHT22;42331;53.578;9.760;2023-02-18T18:07:35;5.60;99.90
56428;DHT22;42331;53.578;9.760;2023-02-18T18:10:06;5.50;99.90
56428;DHT22;42331;53.578;9.760;2023-02-18T18:12:39;5.50;99.90
56428;DHT22;42331;53.578;9.760;2023-02-18T18:17:56;5.40;99.90
56428;DHT22;42331;53.578;9.760;2023-02-18T18:20:30;5.40;99.90
56428;DHT22;42331;53.578;9.760;2023-02-18T18:23:03;5.30;99.90
56428;DHT22;42331;53.578;9.760;2023-02-18T18:25:54;5.30;99.90
56428;DHT22;42331;53.578;9.760;2023-02-18T18:28:26;5.20;99.90
56428;DHT22;42331;53.578;9.760;2023-02-18T18:30:57;5.20;99.90
56428;DHT22;42331;53.578;9.760;2023-02-18T18:33:33;5.20;99.90
56428;DHT22;42331;53.578;9.760;2023-02-18T18:36:04;5.10;99.90
56428;DHT22;42331;53.578;9.760;2023-02-18T18:38:35;5.10;99.90
56428;DHT22;42331;53.578;9.760;2023-02-18T18:41:19;5.00;99.90
56428;DHT22;42331;53.578;9.760;2023-02-18T18:43:50;5.00;99.90
56428;DHT22;42331;53.578;9.760;2023-02-18T18:46:21;5.00;99.90
56428;DHT22;42331;53.578;9.760;2023-02-18T18:48:51;5.00;99.90
56428;DHT22;42331;53.578;9.760;2023-02-18T18:51:28;5.00;99.90
56428;DHT22;42331;53.578;9.760;2023-02-18T18:53:59;4.90;99.90
56428;DHT22;42331;53.578;9.760;2023-02-18T18:56:30;4.90;99.90
56428;DHT22;42331;53.578;9.760;2023-02-18T18:59:00;4.90;99.90
56428;DHT22;42331;53.578;9.760;2023-02-18T19:01:32;5.00;99.90
56428;DHT22;42331;53.578;9.760;2023-02-18T19:04:02;4.90;99.90
56428;DHT22;42331;53.578;9.760;2023-02-18T19:06:33;4.80;99.90
56428;DHT22;42331;53.578;9.760;2023-02-18T19:09:04;4.70;99.90
56428;DHT22;42331;53.578;9.760;2023-02-18T19:11:35;4.70;99.90
56428;DHT22;42331;53.578;9.760;2023-02-18T19:14:08;4.70;99.90
56428;DHT22;42331;53.578;9.760;2023-02-18T19:16:42;4.60;99.90
56428;DHT22;42331;53.578;9.760;2023-02-18T19:19:12;4.60;99.90
56428;DHT22;42331;53.578;9.760;2023-02-18T19:21:43;4.50;99.90